Alabama Port, Alabama
Current Conditions -  °F | °C
As of 2:53 AM on Monday 24 Nov 2014 (Local Time) from KBFM Reporting Station
Overcast Overcast  
Wind Chill: 22°   Ceiling: 800
Heat Index: 22°   Visibility: 10mi
Dew Point: 21°   Wind: 6mph
Humidity: 93%   Direction: NA
Pressure: 29.77"   Gusts: NA
Location:  30.4032°N, 88.1801°W
Report Text: KBFM 240853Z AUTO VRB05KT 10SM OVC008 22/21 A2977 RMK AO2 CIG 006V013 SLP081 T02170206 58002
Loading
Personal Weather Stations






























Interactive Weather Map New forecast layout! Learn more

10-Day Weather Forecast

Advertisements
Track Severe Weather on mobile